Time;durP1;ratioP1;P1;durP2;ratioP2;P2;SDS_P1;SDS_P2;PMS_P1;PMS_P2;Temp;Humidity;BMP_temperature;BMP_pressure;BME280_temperature;BME280_humidity;BME280_pressure;Samples;Min_cycle;Max_cycle;Signal;HPM_P1;HPM_P2
2022/09/21 00:01:12;;;;;;;0.70;0.70;;;;;;;5.58;100.00;99180.38;4915399;29;20182;-81
2022/09/21 00:03:42;;;;;;;0.70;0.70;;;;;;;5.61;100.00;99183.44;4915947;29;20075;-82
2022/09/21 00:06:15;;;;;;;0.70;0.70;;;;;;;5.70;100.00;99180.56;4914422;29;20613;-81
2022/09/21 00:08:43;;;;;;;0.70;0.70;;;;;;;5.74;100.00;99182.59;4914286;29;20056;-81
2022/09/21 00:11:15;;;;;;;0.63;0.63;;;;;;;5.74;100.00;99184.47;4915402;29;20052;-82
2022/09/21 00:13:45;;;;;;;0.80;0.80;;;;;;;5.68;100.00;99180.78;4899020;29;20048;-82
2022/09/21 00:16:14;;;;;;;0.68;0.68;;;;;;;5.62;100.00;99174.41;4915116;29;20555;-83
2022/09/21 00:18:42;;;;;;;0.63;0.63;;;;;;;5.58;100.00;99173.16;4915716;29;20052;-82
2022/09/21 00:21:11;;;;;;;0.60;0.60;;;;;;;5.55;100.00;99178.94;4915354;29;20054;-81
2022/09/21 00:23:38;;;;;;;0.70;0.70;;;;;;;5.50;100.00;99173.38;4914058;29;20479;-82
2022/09/21 00:26:13;;;;;;;0.70;0.70;;;;;;;5.42;100.00;99176.28;4914902;29;20085;-80
2022/09/21 00:28:40;;;;;;;0.70;0.70;;;;;;;5.36;100.00;99188.63;4867327;29;20108;-81
2022/09/21 00:31:11;;;;;;;0.68;0.68;;;;;;;5.34;100.00;99188.03;4915000;29;20063;-81
2022/09/21 00:33:39;;;;;;;0.80;0.80;;;;;;;5.31;100.00;99192.94;4915447;29;20134;-81
2022/09/21 00:36:08;;;;;;;0.63;0.63;;;;;;;5.30;100.00;99193.97;4915111;29;20499;-81
2022/09/21 00:38:36;;;;;;;0.63;0.63;;;;;;;5.28;100.00;99188.81;4915206;29;20048;-81
2022/09/21 00:41:04;;;;;;;0.70;0.70;;;;;;;5.28;100.00;99185.34;4914689;29;20174;-81
2022/09/21 00:43:36;;;;;;;0.70;0.70;;;;;;;5.28;100.00;99196.03;4915253;29;20487;-81
2022/09/21 00:46:23;;;;;;;0.70;0.70;;;;;;;5.25;100.00;99186.56;4913488;29;20063;-82
2022/09/21 00:48:50;;;;;;;0.70;0.70;;;;;;;5.25;100.00;99185.75;4913550;29;20054;-82
2022/09/21 00:51:17;;;;;;;0.70;0.70;;;;;;;5.29;100.00;99186.97;4915066;29;20056;-81
2022/09/21 00:53:44;;;;;;;0.70;0.70;;;;;;;5.28;100.00;99185.34;4914305;29;20048;-82
2022/09/21 00:56:12;;;;;;;0.70;0.70;;;;;;;5.27;100.00;99183.69;4914748;29;20423;-82
2022/09/21 00:58:48;;;;;;;0.70;0.70;;;;;;;5.31;100.00;99184.91;4914162;29;20079;-82
2022/09/21 01:01:17;;;;;;;0.70;0.70;;;;;;;5.30;100.00;99180.59;4914893;29;20055;-81
2022/09/21 01:03:48;;;;;;;0.70;0.70;;;;;;;5.31;100.00;99180.38;4914127;29;20460;-81
2022/09/21 01:06:17;;;;;;;0.70;0.70;;;;;;;5.29;100.00;99168.22;4914037;29;20048;-81
2022/09/21 01:08:46;;;;;;;0.70;0.70;;;;;;;5.27;100.00;99173.00;4915270;29;20052;-82
2022/09/21 01:11:22;;;;;;;0.70;0.70;;;;;;;5.35;100.00;99175.47;4913587;29;20052;-81
2022/09/21 01:14:08;;;;;;;0.70;0.70;;;;;;;5.34;100.00;99177.31;4915225;29;20060;-82
2022/09/21 01:16:51;;;;;;;0.70;0.70;;;;;;;5.37;100.00;99173.41;4915049;29;20056;-81
2022/09/21 01:19:48;;;;;;;0.70;0.70;;;;;;;5.39;100.00;99176.66;4915101;29;20111;-82
2022/09/21 01:22:45;;;;;;;0.70;0.70;;;;;;;5.38;99.92;99177.72;4915237;29;20306;-82
2022/09/21 01:25:40;;;;;;;0.70;0.70;;;;;;;5.37;99.97;99174.22;4893515;29;20060;-82
2022/09/21 01:28:36;;;;;;;0.70;0.70;;;;;;;5.36;99.92;99177.91;4893275;29;20143;-81
2022/09/21 01:31:06;;;;;;;0.70;0.70;;;;;;;5.33;99.98;99172.97;4877070;29;20052;-82
2022/09/21 01:33:43;;;;;;;0.70;0.70;;;;;;;5.34;99.96;99174.63;4877720;29;20510;-80
2022/09/21 01:36:14;;;;;;;0.70;0.70;;;;;;;5.36;100.00;99177.91;4877125;29;20052;-81
2022/09/21 01:38:44;;;;;;;0.70;0.70;;;;;;;5.41;100.00;99175.44;4877431;29;20052;-81
2022/09/21 01:41:13;;;;;;;0.73;0.73;;;;;;;5.45;100.00;99175.03;4877471;29;20052;-82
2022/09/21 01:43:47;;;;;;;0.70;0.70;;;;;;;5.51;100.00;99177.69;4893210;29;20079;-82
2022/09/21 01:46:18;;;;;;;0.65;0.65;;;;;;;5.53;100.00;99175.63;4862106;29;20048;-81
2022/09/21 01:48:54;;;;;;;0.70;0.70;;;;;;;5.54;99.98;99179.13;4892969;29;20468;-83
2022/09/21 01:51:25;;;;;;;0.70;0.70;;;;;;;5.57;100.00;99170.69;4892986;29;20056;-80
2022/09/21 01:54:00;;;;;;;0.70;0.70;;;;;;;5.58;99.98;99183.88;4892667;29;20144;-82
2022/09/21 01:56:34;;;;;;;0.75;0.75;;;;;;;5.62;99.78;99178.91;4892903;29;20056;-82
2022/09/21 01:59:21;;;;;;;0.70;0.70;;;;;;;5.63;99.72;99184.06;4877483;29;20056;-82
2022/09/21 02:01:52;;;;;;;0.60;0.60;;;;;;;5.64;99.39;99184.88;4902721;29;20515;-82
2022/09/21 02:04:19;;;;;;;0.70;0.70;;;;;;;5.65;99.36;99181.19;4917931;29;20062;-81
2022/09/21 02:06:48;;;;;;;0.60;0.60;;;;;;;5.67;99.15;99183.66;4917998;29;20056;-82
2022/09/21 02:09:16;;;;;;;0.70;0.70;;;;;;;5.69;99.08;99182.41;4908520;29;20512;-80
2022/09/21 02:11:45;;;;;;;0.70;0.70;;;;;;;5.76;99.03;99191.25;4906995;29;20181;-81
2022/09/21 02:14:21;;;;;;;0.70;0.70;;;;;;;5.81;98.83;99190.63;4904407;29;20052;-82
2022/09/21 02:16:55;;;;;;;0.70;0.70;;;;;;;5.80;98.64;99191.69;4906173;29;20052;-82
2022/09/21 02:19:34;;;;;;;0.70;0.70;;;;;;;5.83;98.47;99194.75;4910849;29;20060;-81
2022/09/21 02:22:06;;;;;;;0.80;0.80;;;;;;;5.86;98.23;99198.88;4881848;29;20080;-82
2022/09/21 02:24:42;;;;;;;0.70;0.70;;;;;;;5.89;97.98;99193.09;4898129;29;20075;-82
2022/09/21 02:27:26;;;;;;;0.70;0.70;;;;;;;5.91;97.91;99196.38;4898930;29;20174;-82
2022/09/21 02:30:02;;;;;;;0.70;0.70;;;;;;;5.94;97.78;99193.31;4897990;29;20490;-82
2022/09/21 02:32:50;;;;;;;0.70;0.70;;;;;;;5.97;97.57;99200.94;4898793;29;20061;-82
2022/09/21 02:35:25;;;;;;;0.70;0.70;;;;;;;6.02;97.40;99203.78;4902439;29;20064;-82
2022/09/21 02:38:08;;;;;;;0.60;0.60;;;;;;;6.09;97.22;99187.72;4906845;29;20417;-82
2022/09/21 02:41:05;;;;;;;0.70;0.70;;;;;;;6.13;97.24;99190.78;4906264;29;20125;-81
2022/09/21 02:43:36;;;;;;;0.57;0.57;;;;;;;6.16;97.09;99191.19;4888953;29;20067;-82
2022/09/21 02:46:17;;;;;;;0.70;0.70;;;;;;;6.17;96.80;99189.34;4896931;29;20397;-82
2022/09/21 02:48:50;;;;;;;0.70;0.70;;;;;;;6.23;96.60;99193.88;4881710;29;20086;-82
2022/09/21 02:51:22;;;;;;;0.70;0.70;;;;;;;6.25;96.38;99187.25;4897310;29;20056;-81
2022/09/21 02:53:50;;;;;;;0.63;0.63;;;;;;;6.31;96.09;99193.63;4897070;29;20052;-82
2022/09/21 02:56:17;;;;;;;0.70;0.70;;;;;;;6.37;96.33;99186.59;4898323;29;20111;-81
2022/09/21 02:58:48;;;;;;;0.60;0.60;;;;;;;6.40;96.10;99184.28;4881539;29;20080;-82
2022/09/21 03:01:16;;;;;;;0.60;0.60;;;;;;;6.42;96.18;99184.91;4896867;29;20076;-82
2022/09/21 03:03:43;;;;;;;0.60;0.60;;;;;;;6.47;96.21;99186.94;4897047;29;20094;-81
2022/09/21 03:06:10;;;;;;;0.70;0.70;;;;;;;6.50;95.96;99184.66;4897916;29;20381;-81
2022/09/21 03:08:38;;;;;;;0.70;0.70;;;;;;;6.56;96.04;99176.78;4898491;29;20052;-81
2022/09/21 03:11:06;;;;;;;0.68;0.68;;;;;;;6.57;96.07;99175.78;4896766;29;20139;-82
2022/09/21 03:13:36;;;;;;;0.60;0.60;;;;;;;6.58;96.01;99178.22;4897803;29;20053;-81
2022/09/21 03:16:05;;;;;;;0.60;0.60;;;;;;;6.60;96.15;99169.97;4897383;29;20103;-82
2022/09/21 03:18:33;;;;;;;0.60;0.60;;;;;;;6.63;96.18;99174.91;4897776;29;20053;-82
2022/09/21 03:21:01;;;;;;;0.60;0.60;;;;;;;6.66;96.29;99167.28;4895838;29;20045;-83
2022/09/21 03:23:29;;;;;;;0.60;0.60;;;;;;;6.75;96.29;99167.00;4897551;29;20060;-82
2022/09/21 03:25:56;;;;;;;0.60;0.60;;;;;;;6.85;96.54;99170.03;4895568;29;20147;-81
2022/09/21 03:28:23;;;;;;;0.70;0.70;;;;;;;6.94;96.55;99164.19;4897328;29;20048;-81
2022/09/21 03:30:51;;;;;;;0.60;0.60;;;;;;;7.07;96.18;99162.47;4897254;29;20067;-81
2022/09/21 03:33:20;;;;;;;0.60;0.60;;;;;;;7.16;96.07;99162.00;4897179;29;20063;-82
2022/09/21 03:35:48;;;;;;;0.60;0.60;;;;;;;7.26;95.65;99172.22;4897605;29;20060;-80
2022/09/21 03:38:15;;;;;;;0.60;0.60;;;;;;;7.30;95.17;99162.69;4897294;29;20052;-83
2022/09/21 03:40:46;;;;;;;0.60;0.60;;;;;;;7.32;95.12;99170.53;4897505;29;20087;-82
2022/09/21 03:43:13;;;;;;;0.70;0.70;;;;;;;7.31;95.13;99171.56;4898326;29;20057;-82
2022/09/21 03:45:41;;;;;;;0.60;0.60;;;;;;;7.31;95.21;99175.06;4897353;29;20053;-82
2022/09/21 03:48:10;;;;;;;0.70;0.70;;;;;;;7.34;95.34;99169.28;4897182;29;20056;-82
2022/09/21 03:50:37;;;;;;;0.60;0.60;;;;;;;7.37;95.29;99173.38;4897732;29;20059;-84
2022/09/21 03:53:04;;;;;;;0.60;0.60;;;;;;;7.41;95.05;99176.44;4897305;29;20052;-83
2022/09/21 03:55:32;;;;;;;0.60;0.60;;;;;;;7.45;95.08;99180.34;4897732;29;20135;-82
2022/09/21 03:57:59;;;;;;;0.70;0.70;;;;;;;7.47;95.04;99172.88;4905589;29;20048;-83
2022/09/21 04:00:26;;;;;;;0.60;0.60;;;;;;;7.58;94.89;99177.53;4915207;29;20056;-82
2022/09/21 04:02:53;;;;;;;0.60;0.60;;;;;;;7.68;94.77;99174.34;4904988;29;20063;-82
2022/09/21 04:05:20;;;;;;;0.70;0.70;;;;;;;7.73;94.48;99180.69;4910887;29;20084;-83
2022/09/21 04:07:47;;;;;;;0.70;0.70;;;;;;;7.75;94.39;99172.41;4917427;29;20138;-82
2022/09/21 04:10:18;;;;;;;0.70;0.70;;;;;;;7.81;94.43;99179.56;4916360;29;20142;-83
2022/09/21 04:12:46;;;;;;;0.60;0.60;;;;;;;7.85;94.17;99172.72;4917530;29;20147;-83
2022/09/21 04:15:18;;;;;;;0.60;0.60;;;;;;;7.92;94.02;99175.31;4915857;29;20055;-82
2022/09/21 04:17:48;;;;;;;0.60;0.60;;;;;;;7.97;93.68;99178.16;4914471;29;20503;-82
2022/09/21 04:20:15;;;;;;;0.60;0.60;;;;;;;7.98;93.71;99179.81;4917034;29;20063;-81
2022/09/21 04:22:45;;;;;;;0.60;0.60;;;;;;;7.99;93.70;99178.78;4913772;29;20056;-82
2022/09/21 04:25:13;;;;;;;0.63;0.63;;;;;;;7.98;94.04;99185.19;4916394;29;20139;-82
2022/09/21 04:27:40;;;;;;;0.60;0.60;;;;;;;7.94;94.46;99184.81;4915415;29;20085;-82
2022/09/21 04:30:13;;;;;;;0.63;0.63;;;;;;;7.89;94.65;99192.72;4915326;29;20060;-82
2022/09/21 04:32:40;;;;;;;0.70;0.70;;;;;;;7.89;95.04;99191.91;4916242;29;20452;-83
2022/09/21 04:35:07;;;;;;;0.60;0.60;;;;;;;7.92;95.08;99192.25;4915811;29;20318;-83
2022/09/21 04:37:35;;;;;;;0.60;0.60;;;;;;;7.93;94.90;99191.25;4914013;29;20469;-83
2022/09/21 04:40:03;;;;;;;0.60;0.60;;;;;;;7.96;94.92;99188.09;4914935;29;20059;-81
2022/09/21 04:42:30;;;;;;;0.60;0.60;;;;;;;8.05;94.88;99199.38;4915480;29;20056;-82
2022/09/21 04:44:57;;;;;;;0.60;0.60;;;;;;;8.03;94.41;99199.59;4914043;29;20424;-83
2022/09/21 04:47:24;;;;;;;0.70;0.70;;;;;;;8.02;94.58;99195.25;4916525;29;20495;-82
2022/09/21 04:49:54;;;;;;;0.70;0.70;;;;;;;8.12;94.46;99192.06;4915346;29;20525;-83
2022/09/21 04:52:24;;;;;;;0.70;0.70;;;;;;;8.21;94.39;99196.09;4913926;29;20182;-84
2022/09/21 04:54:51;;;;;;;0.70;0.70;;;;;;;8.31;94.37;99197.47;4915744;29;20108;-82
2022/09/21 04:57:19;;;;;;;0.70;0.70;;;;;;;8.38;94.19;99198.16;4914893;29;20060;-82
2022/09/21 04:59:48;;;;;;;0.60;0.60;;;;;;;8.49;93.81;99194.78;4914744;29;20452;-83
2022/09/21 05:02:15;;;;;;;0.60;0.60;;;;;;;8.63;93.51;99201.63;4914285;29;20542;-82
2022/09/21 05:04:43;;;;;;;0.60;0.60;;;;;;;8.76;92.79;99191.72;4914095;29;20052;-82
2022/09/21 05:07:16;;;;;;;0.70;0.70;;;;;;;8.85;92.56;99193.06;4913754;29;20602;-82
2022/09/21 05:10:04;;;;;;;0.70;0.70;;;;;;;8.99;91.97;99186.44;4912731;29;20052;-82
2022/09/21 05:12:31;;;;;;;;;;;;;;;9.14;91.51;99196.78;4914888;29;20226;-82
2022/09/21 05:14:58;;;;;;;0.60;0.60;;;;;;;9.21;90.99;99193.97;4912335;29;19931;-82
2022/09/21 05:17:25;;;;;;;0.60;0.60;;;;;;;9.35;90.53;99198.09;4914672;29;20127;-83
2022/09/21 05:19:52;;;;;;;0.60;0.60;;;;;;;9.48;90.17;99197.88;4913932;29;20070;-82
2022/09/21 05:22:20;;;;;;;0.60;0.60;;;;;;;9.62;89.65;99184.19;4912547;29;20431;-84
2022/09/21 05:24:47;;;;;;;0.60;0.60;;;;;;;9.74;89.44;99188.50;4914483;29;20052;-81
2022/09/21 05:27:14;;;;;;;0.70;0.70;;;;;;;9.90;88.89;99188.84;4913764;29;20048;-82
2022/09/21 05:29:41;;;;;;;0.60;0.60;;;;;;;9.98;88.26;99188.53;4568474;29;10000477;-83
2022/09/21 05:32:25;;;;;;;0.70;0.70;;;;;;;10.13;87.49;99183.47;4891856;29;20131;-82
2022/09/21 05:35:13;;;;;;;0.60;0.60;;;;;;;10.20;87.13;99186.84;4875118;29;20062;-80
2022/09/21 05:37:43;;;;;;;0.60;0.60;;;;;;;10.27;86.68;99178.63;4892319;29;20057;-80
2022/09/21 05:40:11;;;;;;;0.70;0.70;;;;;;;10.31;86.27;99184.41;4892171;29;20444;-83
2022/09/21 05:42:39;;;;;;;0.60;0.60;;;;;;;10.45;85.97;99187.63;4890471;29;20088;-82
2022/09/21 05:45:08;;;;;;;0.60;0.60;;;;;;;10.55;85.43;99187.84;4875720;29;20059;-84
2022/09/21 05:47:41;;;;;;;0.60;0.60;;;;;;;10.55;84.82;99191.34;4891197;29;20436;-83
2022/09/21 05:50:35;;;;;;;0.60;0.60;;;;;;;10.58;84.90;99188.19;4891427;29;20059;-81
2022/09/21 05:53:11;;;;;;;0.60;0.60;;;;;;;10.56;84.45;99184.09;4891115;29;20520;-82
2022/09/21 05:55:55;;;;;;;0.60;0.60;;;;;;;10.65;84.47;99192.63;4890711;29;20063;-83
2022/09/21 05:58:25;;;;;;;0.60;0.60;;;;;;;10.63;83.96;99190.16;4894513;29;20526;-81
2022/09/21 06:01:16;;;;;;;0.60;0.60;;;;;;;10.61;84.27;99190.41;4899991;29;20056;-82
2022/09/21 06:03:44;;;;;;;0.60;0.60;;;;;;;10.59;84.07;99178.22;4905237;29;20056;-80
2022/09/21 06:06:10;;;;;;;0.60;0.60;;;;;;;10.62;83.85;99185.81;4902185;29;20139;-81
2022/09/21 06:08:37;;;;;;;0.60;0.60;;;;;;;10.75;83.68;99182.81;4902868;29;20423;-86
2022/09/21 06:11:07;;;;;;;0.60;0.60;;;;;;;10.93;83.30;99178.28;4900280;29;20044;-82
2022/09/21 06:13:37;;;;;;;0.60;0.60;;;;;;;11.05;82.56;99189.84;4898003;29;20052;-84
2022/09/21 06:16:04;;;;;;;0.60;0.60;;;;;;;11.22;82.26;99198.00;4908324;29;20077;-84
2022/09/21 06:18:39;;;;;;;0.60;0.60;;;;;;;11.36;81.39;99187.69;4910080;29;20115;-83
2022/09/21 06:21:07;;;;;;;0.60;0.60;;;;;;;11.54;80.95;99190.13;4917478;29;20052;-84
2022/09/21 06:23:35;;;;;;;0.60;0.60;;;;;;;11.70;79.95;99191.22;4909897;29;20068;-83
2022/09/21 06:26:02;;;;;;;0.60;0.60;;;;;;;11.90;78.90;99196.94;4902937;29;20063;-82
2022/09/21 06:28:29;;;;;;;0.60;0.60;;;;;;;12.08;77.88;99195.84;4892609;29;20151;-81
2022/09/21 06:30:57;;;;;;;0.55;0.55;;;;;;;12.24;76.93;99183.31;4899383;29;20432;-83
2022/09/21 06:33:25;;;;;;;0.63;0.63;;;;;;;12.22;76.38;99187.34;4904019;29;20052;-83
2022/09/21 06:35:58;;;;;;;0.60;0.60;;;;;;;12.24;76.52;99187.94;4891360;29;20059;-82
2022/09/21 06:38:26;;;;;;;0.60;0.60;;;;;;;12.37;76.08;99176.72;4905305;29;20519;-83
2022/09/21 06:40:54;;;;;;;0.50;0.50;;;;;;;12.49;75.63;99184.72;4897902;29;20627;-80
2022/09/21 06:43:25;;;;;;;0.55;0.55;;;;;;;12.44;75.56;99181.97;4904893;29;20410;-82
2022/09/21 06:45:54;;;;;;;0.50;0.50;;;;;;;12.44;75.16;99182.78;4898889;29;20087;-82
2022/09/21 06:48:21;;;;;;;0.50;0.50;;;;;;;12.31;75.55;99193.97;4904426;29;20052;-81
2022/09/21 06:50:49;;;;;;;0.50;0.50;;;;;;;12.27;75.77;99199.06;4887548;29;20052;-82
2022/09/21 06:53:17;;;;;;;0.50;0.50;;;;;;;12.30;75.83;99186.91;4903526;29;20526;-80
2022/09/21 06:55:44;;;;;;;0.60;0.60;;;;;;;12.32;75.37;99196.41;4908947;29;20048;-81
2022/09/21 06:58:13;;;;;;;0.55;0.55;;;;;;;12.32;74.94;99185.59;4913864;29;20420;-82
2022/09/21 07:00:40;;;;;;;0.60;0.60;;;;;;;12.34;75.10;99193.47;4906150;29;20412;-82
2022/09/21 07:03:10;;;;;;;0.60;0.60;;;;;;;12.55;74.57;99195.34;4903786;29;20049;-81
2022/09/21 07:05:38;;;;;;;0.60;0.60;;;;;;;12.85;73.68;99183.22;4894471;29;20048;-79
2022/09/21 07:08:05;;;;;;;0.65;0.65;;;;;;;13.13;72.37;99195.69;4894764;29;20580;-82
2022/09/21 07:10:53;;;;;;;0.60;0.60;;;;;;;13.53;71.14;99188.22;4894483;29;20057;-83
2022/09/21 07:13:20;;;;;;;0.63;0.63;;;;;;;13.81;70.07;99196.00;4901323;29;20155;-83
2022/09/21 07:15:47;;;;;;;0.65;0.65;;;;;;;13.98;68.96;99185.00;4911492;29;20067;-81
2022/09/21 07:18:19;;;;;;;0.60;0.60;;;;;;;14.15;67.88;99187.53;4911711;29;20048;-82
2022/09/21 07:20:49;;;;;;;0.60;0.60;;;;;;;14.13;67.25;99187.00;4905775;29;20083;-81
2022/09/21 07:23:18;;;;;;;0.60;0.60;;;;;;;13.96;66.68;99180.91;4915694;29;20064;-81
2022/09/21 07:25:51;;;;;;;0.50;0.50;;;;;;;13.77;66.79;99188.66;4911400;29;20060;-82
2022/09/21 07:28:18;;;;;;;0.60;0.60;;;;;;;13.84;67.03;99189.25;4900550;29;20058;-82
2022/09/21 07:30:45;;;;;;;0.60;0.60;;;;;;;13.87;66.65;99196.84;4910191;29;20499;-81
2022/09/21 07:33:12;;;;;;;0.68;0.68;;;;;;;14.04;66.26;99188.56;4905424;29;20053;-82
2022/09/21 07:35:39;;;;;;;0.60;0.60;;;;;;;14.13;66.01;99197.84;4900661;29;20503;-81
2022/09/21 07:38:07;;;;;;;0.50;0.50;;;;;;;14.12;65.41;99185.34;4894329;29;20060;-82
2022/09/21 07:40:34;;;;;;;0.60;0.60;;;;;;;13.95;66.18;99200.97;4896097;29;20135;-82
2022/09/21 07:43:02;;;;;;;0.50;0.50;;;;;;;13.95;66.48;99196.38;4878709;29;20155;-82
2022/09/21 07:45:30;;;;;;;0.60;0.60;;;;;;;13.96;66.71;99202.63;4900402;29;20053;-81
2022/09/21 07:48:04;;;;;;;0.60;0.60;;;;;;;13.95;66.55;99190.13;4903383;29;20056;-84
2022/09/21 07:50:33;;;;;;;0.60;0.60;;;;;;;14.06;66.31;99194.53;4912946;29;20059;-83
2022/09/21 07:53:02;;;;;;;0.60;0.60;;;;;;;14.09;66.40;99194.00;4910051;29;20052;-83
2022/09/21 07:55:29;;;;;;;0.60;0.60;;;;;;;14.18;66.32;99197.88;4895710;29;20051;-82
2022/09/21 08:00:42;;;;;;;0.50;0.50;;;;;;;14.17;66.14;99198.94;4895198;29;20051;-82
2022/09/21 08:03:09;;;;;;;0.50;0.50;;;;;;;14.23;66.06;99199.78;4901902;29;20063;-82
2022/09/21 08:05:38;;;;;;;0.50;0.50;;;;;;;14.19;65.60;99198.69;4907937;29;20124;-82
2022/09/21 08:08:05;;;;;;;0.50;0.50;;;;;;;13.96;65.82;99180.91;4909020;29;20569;-81
2022/09/21 08:10:32;;;;;;;0.50;0.50;;;;;;;13.84;66.10;99190.06;4910952;29;20055;-82
2022/09/21 08:12:59;;;;;;;0.60;0.60;;;;;;;13.70;66.41;99186.19;4894223;29;20056;-82
2022/09/21 08:15:26;;;;;;;0.50;0.50;;;;;;;13.63;66.83;99194.53;4912234;29;20062;-86
2022/09/21 08:18:13;;;;;;;0.60;0.60;;;;;;;13.70;66.91;99190.75;4911283;29;20423;-81
2022/09/21 08:20:41;;;;;;;0.50;0.50;;;;;;;13.81;66.80;99190.59;4912714;29;20056;-81
2022/09/21 08:23:08;;;;;;;0.50;0.50;;;;;;;13.78;66.44;99187.59;4909994;29;20071;-83
2022/09/21 08:25:37;;;;;;;0.50;0.50;;;;;;;13.68;66.89;99184.81;4900263;29;20094;-79
2022/09/21 08:28:05;;;;;;;0.50;0.50;;;;;;;13.73;66.54;99182.13;4905512;29;20103;-82
2022/09/21 08:30:36;;;;;;;0.60;0.60;;;;;;;13.77;66.18;99184.03;4907814;29;20107;-81
2022/09/21 08:33:03;;;;;;;0.50;0.50;;;;;;;13.86;66.28;99185.19;4876220;29;20128;-85
2022/09/21 08:35:30;;;;;;;0.60;0.60;;;;;;;14.06;65.84;99187.22;4874213;29;20139;-81
2022/09/21 08:37:57;;;;;;;0.60;0.60;;;;;;;14.12;65.62;99181.81;4892650;29;20056;-80
2022/09/21 08:40:25;;;;;;;0.60;0.60;;;;;;;14.07;65.78;99175.25;4890056;29;20052;-80
2022/09/21 08:43:08;;;;;;;0.70;0.70;;;;;;;14.36;64.80;99179.50;4888766;29;20087;-82
2022/09/21 08:45:43;;;;;;;0.60;0.60;;;;;;;14.67;64.10;99175.81;4891033;29;20064;-81
2022/09/21 08:48:18;;;;;;;0.60;0.60;;;;;;;14.85;63.43;99179.13;4893841;29;20064;-82
2022/09/21 08:50:53;;;;;;;0.60;0.60;;;;;;;14.81;63.55;99170.72;4875452;29;20186;-81
2022/09/21 08:53:30;;;;;;;0.55;0.55;;;;;;;14.81;63.51;99164.44;4895966;29;20052;-81
2022/09/21 08:55:57;;;;;;;0.50;0.50;;;;;;;14.82;64.03;99164.19;4893718;29;20052;-83
2022/09/21 08:58:26;;;;;;;0.50;0.50;;;;;;;14.84;64.15;99162.03;4890318;29;20062;-81
2022/09/21 09:01:18;;;;;;;0.50;0.50;;;;;;;14.85;63.17;99160.13;4888942;29;20052;-81
2022/09/21 09:03:55;;;;;;;0.50;0.50;;;;;;;14.54;63.22;99156.50;4874485;29;20080;-81
2022/09/21 09:06:42;;;;;;;0.60;0.60;;;;;;;14.52;63.59;99154.84;4886902;29;20068;-81
2022/09/21 09:09:09;;;;;;;0.60;0.60;;;;;;;14.55;63.64;99156.22;4890329;29;20052;-81
2022/09/21 09:11:53;;;;;;;0.55;0.55;;;;;;;14.53;63.21;99155.69;4901369;29;20135;-83
2022/09/21 09:14:30;;;;;;;0.50;0.50;;;;;;;14.57;63.09;99154.06;4902798;29;20581;-81
2022/09/21 09:17:28;;;;;;;0.50;0.50;;;;;;;14.40;62.43;99142.56;4904822;29;20546;-81
2022/09/21 09:20:08;;;;;;;0.50;0.50;;;;;;;14.27;62.74;99141.97;4919452;29;20563;-81
2022/09/21 09:23:01;;;;;;;0.50;0.50;;;;;;;14.23;63.17;99143.59;4905351;29;20534;-83
2022/09/21 09:25:34;;;;;;;0.50;0.50;;;;;;;13.98;63.64;99138.88;4899244;29;20139;-83
2022/09/21 09:28:09;;;;;;;0.50;0.50;;;;;;;13.86;64.41;99144.50;4900137;29;20183;-81
2022/09/21 09:30:36;;;;;;;0.57;0.57;;;;;;;13.92;64.24;99137.19;4905262;29;20062;-81
2022/09/21 09:33:42;;;;;;;0.60;0.60;;;;;;;14.21;63.87;99139.53;4898692;29;20136;-81
2022/09/21 09:36:11;;;;;;;0.60;0.60;;;;;;;14.35;64.09;99143.38;4885500;29;20070;-82
2022/09/21 09:38:43;;;;;;;0.60;0.60;;;;;;;14.64;62.61;99143.78;4879936;29;20055;-83
2022/09/21 09:41:32;;;;;;;0.60;0.60;;;;;;;14.99;61.03;99139.50;4875925;29;20052;-83
2022/09/21 09:44:14;;;;;;;0.60;0.60;;;;;;;15.41;59.65;99135.69;4892143;29;20052;-83
2022/09/21 09:47:14;;;;;;;0.60;0.60;;;;;;;15.82;58.64;99131.06;4880391;29;20064;-86
2022/09/21 09:50:10;;;;;;;0.50;0.50;;;;;;;15.60;58.67;99134.03;4862772;29;20099;-85
2022/09/21 09:56:21;;;;;;;0.50;0.50;;;;;;;15.23;60.11;99136.25;4891652;29;20080;-86
2022/09/21 09:59:05;;;;;;;0.50;0.50;;;;;;;15.18;59.88;99135.16;4894092;29;20048;-82
2022/09/21 10:01:40;;;;;;;0.50;0.50;;;;;;;15.31;59.59;99141.13;4892620;29;20080;-86
2022/09/21 10:04:13;;;;;;;0.60;0.60;;;;;;;15.50;59.06;99133.25;4892322;29;20100;-86
2022/09/21 10:06:41;;;;;;;0.60;0.60;;;;;;;15.72;58.33;99143.84;4873537;29;20067;-84
2022/09/21 10:09:25;;;;;;;0.50;0.50;;;;;;;15.93;57.89;99141.91;4903228;29;20057;-83
2022/09/21 10:11:55;;;;;;;0.60;0.60;;;;;;;16.12;57.56;99136.66;4872558;29;20147;-85
2022/09/21 10:14:24;;;;;;;0.52;0.52;;;;;;;16.20;56.86;99136.09;4904707;29;20060;-86
2022/09/21 10:16:52;;;;;;;0.50;0.50;;;;;;;16.07;56.33;99125.78;4902178;29;20056;-84
2022/09/21 10:19:24;;;;;;;0.50;0.50;;;;;;;15.90;57.23;99132.38;4903936;29;20045;-84
2022/09/21 10:22:05;;;;;;;0.40;0.40;;;;;;;15.65;57.52;99132.38;4923166;29;20088;-85
2022/09/21 10:24:35;;;;;;;0.50;0.50;;;;;;;15.49;58.10;99126.97;4904198;29;20100;-84
2022/09/21 10:27:16;;;;;;;0.50;0.50;;;;;;;15.56;57.37;99127.50;4916363;29;20055;-86
2022/09/21 10:29:45;;;;;;;0.50;0.50;;;;;;;15.30;57.92;99121.28;4918461;29;20052;-85
2022/09/21 10:32:12;;;;;;;0.50;0.50;;;;;;;15.12;57.91;99128.09;4915555;29;20146;-84
2022/09/21 10:35:12;;;;;;;0.47;0.47;;;;;;;15.16;57.31;99118.28;4916206;29;20142;-85
2022/09/21 10:37:41;;;;;;;0.50;0.50;;;;;;;15.22;57.42;99116.41;4912258;29;20508;-86
2022/09/21 10:40:20;;;;;;;0.50;0.50;;;;;;;15.23;56.08;99118.03;4898209;29;20076;-84
2022/09/21 10:42:49;;;;;;;0.60;0.60;;;;;;;15.26;56.16;99116.66;4906490;29;20059;-84
2022/09/21 10:45:18;;;;;;;0.50;0.50;;;;;;;15.25;56.36;99115.03;4914021;29;20068;-84
2022/09/21 10:47:47;;;;;;;0.40;0.40;;;;;;;15.11;56.64;99115.56;4916652;29;20080;-84
2022/09/21 10:50:37;;;;;;;0.50;0.50;;;;;;;15.13;56.65;99112.59;4889030;29;20056;-84
2022/09/21 10:53:22;;;;;;;0.50;0.50;;;;;;;15.06;56.70;99123.72;4912651;29;20063;-83
2022/09/21 10:55:56;;;;;;;;;;;;;;;15.05;57.28;99118.56;4905957;29;20721;-83
2022/09/21 10:59:11;;;;;;;0.50;0.50;;;;;;;15.07;57.16;99119.94;4902786;29;19927;-84
2022/09/21 11:01:46;;;;;;;0.50;0.50;;;;;;;14.99;57.50;99103.34;4902892;29;20072;-84
2022/09/21 11:04:40;;;;;;;0.50;0.50;;;;;;;14.94;57.67;99107.69;4915369;29;20052;-85
2022/09/21 11:07:23;;;;;;;0.40;0.40;;;;;;;14.93;57.76;99108.75;4915912;29;20056;-85
2022/09/21 11:10:03;;;;;;;0.50;0.50;;;;;;;14.75;58.03;99106.56;4909898;29;20057;-84
2022/09/21 11:12:59;;;;;;;0.50;0.50;;;;;;;14.70;58.25;99109.28;4905472;29;20135;-84
2022/09/21 11:15:37;;;;;;;0.50;0.50;;;;;;;14.69;58.53;99122.06;4902374;29;20072;-84
2022/09/21 11:18:36;;;;;;;0.50;0.50;;;;;;;14.74;58.28;99115.81;4904984;29;20059;-84
2022/09/21 11:21:14;;;;;;;0.50;0.50;;;;;;;14.65;58.45;99110.09;4905324;29;20154;-85
2022/09/21 11:24:14;;;;;;;0.50;0.50;;;;;;;14.52;58.66;99111.38;4917141;29;20055;-83
2022/09/21 11:26:47;;;;;;;0.45;0.45;;;;;;;14.38;59.21;99109.44;4907499;29;20048;-84
2022/09/21 11:29:18;;;;;;;0.40;0.40;;;;;;;14.34;59.22;99102.94;4903610;29;20133;-82
2022/09/21 11:31:57;;;;;;;0.50;0.50;;;;;;;14.36;59.45;99098.06;4909253;29;20382;-84
2022/09/21 11:34:43;;;;;;;0.45;0.45;;;;;;;14.27;59.38;99093.13;4906334;29;20067;-84
2022/09/21 11:37:31;;;;;;;0.50;0.50;;;;;;;14.24;59.96;99090.13;4904171;29;20108;-84
2022/09/21 11:40:08;;;;;;;0.50;0.50;;;;;;;14.18;59.97;99086.59;4913428;29;20052;-85
2022/09/21 11:43:07;;;;;;;0.50;0.50;;;;;;;14.18;60.18;99093.91;4909569;29;20101;-84
2022/09/21 11:45:45;;;;;;;0.43;0.43;;;;;;;14.16;60.04;99085.22;4890128;29;20074;-83
2022/09/21 11:48:42;;;;;;;0.45;0.45;;;;;;;14.00;60.14;99085.16;4907890;29;20436;-84
2022/09/21 11:51:51;;;;;;;0.50;0.50;;;;;;;13.98;60.37;99092.75;4897231;29;20107;-83
2022/09/21 11:54:39;;;;;;;0.50;0.50;;;;;;;13.80;61.24;99091.31;4897247;29;20057;-83
2022/09/21 11:57:23;;;;;;;0.40;0.40;;;;;;;13.69;62.07;99083.38;4904551;29;20099;-86
2022/09/21 11:59:59;;;;;;;0.50;0.50;;;;;;;13.65;62.87;99077.66;4898169;29;20053;-83
2022/09/21 12:02:50;;;;;;;0.50;0.50;;;;;;;13.65;63.24;99081.19;4897154;29;20568;-84
2022/09/21 12:05:22;;;;;;;0.40;0.40;;;;;;;13.65;63.49;99077.66;4908264;29;20052;-84
2022/09/21 12:07:58;;;;;;;0.50;0.50;;;;;;;13.60;63.54;99078.44;4896890;29;20057;-84
2022/09/21 12:10:53;;;;;;;0.47;0.47;;;;;;;13.52;63.65;99081.66;4895057;29;20052;-85
2022/09/21 12:13:32;;;;;;;0.50;0.50;;;;;;;13.45;63.89;99078.34;4894314;29;20071;-85